Indian River Shores, Florida
Current Conditions -  °F | °C
As of 4:53 PM on Monday 24 Nov 2014 (Local Time) from KVRB Reporting Station
Clear Clear  
Wind Chill: 83°   Ceiling: Unl
Heat Index: 86°   Visibility: 10mi
Dew Point: 69°   Wind: 7mph
Humidity: 63%   Direction: 210°SSW
Pressure: 29.96"   Gusts: NA
Location:  27.7066°N, 80.3826°W
Report Text: KVRB 242153Z AUTO 21006KT 10SM CLR 28/21 A2996 RMK AO2 SLP143 T02830206
Loading
Personal Weather Stations






























Interactive Weather Map New forecast layout! Learn more

10-Day Weather Forecast

Advertisements
Track Severe Weather on mobile